sensor_id;sensor_type;location;lat;lon;timestamp;pressure;altitude;pressure_sealevel;temperature;humidity
9077;BME280;4574;51.072;17.174;2023-02-04T00:00:43;99547.31;;;5.07;100.00
9077;BME280;4574;51.072;17.174;2023-02-04T00:03:12;99549.44;;;4.93;100.00
9077;BME280;4574;51.072;17.174;2023-02-04T00:05:41;99560.72;;;4.93;100.00
9077;BME280;4574;51.072;17.174;2023-02-04T00:08:10;99551.84;;;4.85;100.00
9077;BME280;4574;51.072;17.174;2023-02-04T00:10:38;99576.53;;;4.82;100.00
9077;BME280;4574;51.072;17.174;2023-02-04T00:13:07;99573.94;;;4.71;100.00
9077;BME280;4574;51.072;17.174;2023-02-04T00:15:37;99589.81;;;4.70;100.00
9077;BME280;4574;51.072;17.174;2023-02-04T00:18:05;99579.13;;;4.62;100.00
9077;BME280;4574;51.072;17.174;2023-02-04T00:20:35;99581.03;;;4.60;100.00
9077;BME280;4574;51.072;17.174;2023-02-04T00:23:04;99584.78;;;4.46;100.00
9077;BME280;4574;51.072;17.174;2023-02-04T00:25:32;99585.72;;;4.45;100.00
9077;BME280;4574;51.072;17.174;2023-02-04T00:28:01;99583.81;;;4.47;100.00
9077;BME280;4574;51.072;17.174;2023-02-04T00:30:30;99607.53;;;4.46;100.00
9077;BME280;4574;51.072;17.174;2023-02-04T00:33:00;99606.22;;;4.40;100.00
9077;BME280;4574;51.072;17.174;2023-02-04T00:35:29;99606.94;;;4.42;100.00
9077;BME280;4574;51.072;17.174;2023-02-04T00:37:57;99631.47;;;4.41;100.00
9077;BME280;4574;51.072;17.174;2023-02-04T00:40:26;99629.09;;;4.38;100.00
9077;BME280;4574;51.072;17.174;2023-02-04T00:42:55;99624.34;;;4.32;100.00
9077;BME280;4574;51.072;17.174;2023-02-04T00:45:24;99656.25;;;4.26;100.00
9077;BME280;4574;51.072;17.174;2023-02-04T00:47:53;99664.25;;;4.14;100.00
9077;BME280;4574;51.072;17.174;2023-02-04T00:50:24;99648.19;;;4.07;100.00
9077;BME280;4574;51.072;17.174;2023-02-04T00:52:53;99670.09;;;3.95;100.00
9077;BME280;4574;51.072;17.174;2023-02-04T00:55:22;99677.72;;;3.88;100.00
9077;BME280;4574;51.072;17.174;2023-02-04T00:57:50;99673.91;;;3.81;100.00
9077;BME280;4574;51.072;17.174;2023-02-04T01:00:19;99679.38;;;3.78;100.00
9077;BME280;4574;51.072;17.174;2023-02-04T01:02:48;99684.84;;;3.75;100.00
9077;BME280;4574;51.072;17.174;2023-02-04T01:05:17;99686.97;;;3.70;100.00
9077;BME280;4574;51.072;17.174;2023-02-04T01:07:47;99699.34;;;3.68;100.00
9077;BME280;4574;51.072;17.174;2023-02-04T01:10:17;99694.81;;;3.59;100.00
9077;BME280;4574;51.072;17.174;2023-02-04T01:12:46;99707.84;;;3.48;100.00
9077;BME280;4574;51.072;17.174;2023-02-04T01:15:15;99712.25;;;3.47;100.00
9077;BME280;4574;51.072;17.174;2023-02-04T01:17:44;99720.66;;;3.40;100.00
9077;BME280;4574;51.072;17.174;2023-02-04T01:20:13;99718.97;;;3.39;100.00
9077;BME280;4574;51.072;17.174;2023-02-04T01:22:41;99730.13;;;3.30;100.00
9077;BME280;4574;51.072;17.174;2023-02-04T01:25:11;99732.00;;;3.28;100.00
9077;BME280;4574;51.072;17.174;2023-02-04T01:27:40;99714.16;;;3.22;100.00
9077;BME280;4574;51.072;17.174;2023-02-04T01:30:11;99734.84;;;3.25;100.00
9077;BME280;4574;51.072;17.174;2023-02-04T01:32:39;99759.25;;;3.25;100.00
9077;BME280;4574;51.072;17.174;2023-02-04T01:35:08;99761.13;;;3.23;100.00
9077;BME280;4574;51.072;17.174;2023-02-04T01:37:37;99770.97;;;3.20;100.00
9077;BME280;4574;51.072;17.174;2023-02-04T01:40:07;99774.75;;;3.16;100.00
9077;BME280;4574;51.072;17.174;2023-02-04T01:42:38;99785.16;;;3.05;100.00
9077;BME280;4574;51.072;17.174;2023-02-04T01:45:08;99823.19;;;2.85;100.00
9077;BME280;4574;51.072;17.174;2023-02-04T01:47:37;99825.50;;;2.65;100.00
9077;BME280;4574;51.072;17.174;2023-02-04T01:50:10;99869.41;;;2.48;100.00
9077;BME280;4574;51.072;17.174;2023-02-04T01:52:41;99879.84;;;2.23;100.00
9077;BME280;4574;51.072;17.174;2023-02-04T01:55:13;99907.22;;;2.17;100.00
9077;BME280;4574;51.072;17.174;2023-02-04T01:57:45;99924.84;;;2.14;100.00
9077;BME280;4574;51.072;17.174;2023-02-04T02:00:16;99948.00;;;2.06;100.00
9077;BME280;4574;51.072;17.174;2023-02-04T02:02:47;99961.66;;;1.97;100.00
9077;BME280;4574;51.072;17.174;2023-02-04T02:05:20;99984.91;;;1.87;100.00
9077;BME280;4574;51.072;17.174;2023-02-04T02:07:50;99984.75;;;1.76;100.00
9077;BME280;4574;51.072;17.174;2023-02-04T02:10:20;100010.84;;;1.76;100.00
9077;BME280;4574;51.072;17.174;2023-02-04T02:12:51;100019.59;;;1.75;100.00
9077;BME280;4574;51.072;17.174;2023-02-04T02:15:21;100061.34;;;1.75;100.00
9077;BME280;4574;51.072;17.174;2023-02-04T02:17:51;100050.91;;;1.75;100.00
9077;BME280;4574;51.072;17.174;2023-02-04T02:20:22;100067.38;;;1.76;100.00
9077;BME280;4574;51.072;17.174;2023-02-04T02:22:59;100086.50;;;1.62;100.00
9077;BME280;4574;51.072;17.174;2023-02-04T02:25:32;100120.13;;;1.67;100.00
9077;BME280;4574;51.072;17.174;2023-02-04T02:28:02;100126.34;;;1.64;100.00
9077;BME280;4574;51.072;17.174;2023-02-04T02:30:32;100136.41;;;1.56;100.00
9077;BME280;4574;51.072;17.174;2023-02-04T02:33:02;100152.44;;;1.64;100.00
9077;BME280;4574;51.072;17.174;2023-02-04T02:35:32;100174.91;;;1.53;100.00
9077;BME280;4574;51.072;17.174;2023-02-04T02:38:01;100191.56;;;1.50;100.00
9077;BME280;4574;51.072;17.174;2023-02-04T02:40:31;100215.78;;;1.52;100.00
9077;BME280;4574;51.072;17.174;2023-02-04T02:43:00;100205.88;;;1.43;100.00
9077;BME280;4574;51.072;17.174;2023-02-04T02:45:30;100239.59;;;1.46;100.00
9077;BME280;4574;51.072;17.174;2023-02-04T02:48:01;100256.19;;;1.45;100.00
9077;BME280;4574;51.072;17.174;2023-02-04T02:50:31;100266.91;;;1.41;100.00
9077;BME280;4574;51.072;17.174;2023-02-04T02:53:00;100272.94;;;1.41;100.00
9077;BME280;4574;51.072;17.174;2023-02-04T02:55:31;100288.69;;;1.40;100.00
9077;BME280;4574;51.072;17.174;2023-02-04T02:58:00;100321.66;;;1.41;100.00
9077;BME280;4574;51.072;17.174;2023-02-04T03:00:29;100315.53;;;1.42;100.00
9077;BME280;4574;51.072;17.174;2023-02-04T03:03:01;100342.25;;;1.45;100.00
9077;BME280;4574;51.072;17.174;2023-02-04T03:05:35;100360.50;;;1.45;100.00
9077;BME280;4574;51.072;17.174;2023-02-04T03:08:07;100369.34;;;1.43;100.00
9077;BME280;4574;51.072;17.174;2023-02-04T03:10:39;100390.28;;;1.41;100.00
9077;BME280;4574;51.072;17.174;2023-02-04T03:13:09;100405.88;;;1.43;100.00
9077;BME280;4574;51.072;17.174;2023-02-04T03:15:38;100424.19;;;1.41;100.00
9077;BME280;4574;51.072;17.174;2023-02-04T03:18:08;100440.59;;;1.43;100.00
9077;BME280;4574;51.072;17.174;2023-02-04T03:20:37;100441.44;;;1.44;100.00
9077;BME280;4574;51.072;17.174;2023-02-04T03:23:06;100462.47;;;1.41;100.00
9077;BME280;4574;51.072;17.174;2023-02-04T03:25:35;100457.19;;;1.27;100.00
9077;BME280;4574;51.072;17.174;2023-02-04T03:28:05;100491.94;;;1.43;100.00
9077;BME280;4574;51.072;17.174;2023-02-04T03:30:34;100502.75;;;1.35;100.00
9077;BME280;4574;51.072;17.174;2023-02-04T03:33:03;100532.47;;;1.33;100.00
9077;BME280;4574;51.072;17.174;2023-02-04T03:35:32;100544.97;;;1.27;100.00
9077;BME280;4574;51.072;17.174;2023-02-04T03:38:00;100543.28;;;1.26;100.00
9077;BME280;4574;51.072;17.174;2023-02-04T03:40:28;100565.06;;;1.25;100.00
9077;BME280;4574;51.072;17.174;2023-02-04T03:42:57;100589.22;;;1.28;100.00
9077;BME280;4574;51.072;17.174;2023-02-04T03:45:27;100607.69;;;1.24;100.00
9077;BME280;4574;51.072;17.174;2023-02-04T03:48:06;100616.69;;;1.18;100.00
9077;BME280;4574;51.072;17.174;2023-02-04T03:50:35;100640.97;;;1.19;100.00
9077;BME280;4574;51.072;17.174;2023-02-04T03:53:03;100650.66;;;1.17;100.00
9077;BME280;4574;51.072;17.174;2023-02-04T03:55:32;100658.88;;;1.09;100.00
9077;BME280;4574;51.072;17.174;2023-02-04T03:58:02;100687.28;;;1.14;100.00
9077;BME280;4574;51.072;17.174;2023-02-04T04:00:32;100683.91;;;1.12;100.00
9077;BME280;4574;51.072;17.174;2023-02-04T04:03:02;100690.97;;;1.10;100.00
9077;BME280;4574;51.072;17.174;2023-02-04T04:05:31;100707.47;;;1.10;100.00
9077;BME280;4574;51.072;17.174;2023-02-04T04:08:00;100721.44;;;1.09;100.00
9077;BME280;4574;51.072;17.174;2023-02-04T04:10:28;100730.06;;;1.10;100.00
9077;BME280;4574;51.072;17.174;2023-02-04T04:13:00;100736.34;;;1.06;100.00
9077;BME280;4574;51.072;17.174;2023-02-04T04:15:32;100751.16;;;1.05;100.00
9077;BME280;4574;51.072;17.174;2023-02-04T04:18:00;100753.69;;;1.07;100.00
9077;BME280;4574;51.072;17.174;2023-02-04T04:20:30;100771.16;;;1.05;100.00
9077;BME280;4574;51.072;17.174;2023-02-04T04:22:59;100773.00;;;1.03;100.00
9077;BME280;4574;51.072;17.174;2023-02-04T04:25:28;100786.13;;;1.01;100.00
9077;BME280;4574;51.072;17.174;2023-02-04T04:27:57;100776.00;;;0.95;100.00
9077;BME280;4574;51.072;17.174;2023-02-04T04:30:26;100805.19;;;1.02;100.00
9077;BME280;4574;51.072;17.174;2023-02-04T04:32:56;100788.72;;;1.01;100.00
9077;BME280;4574;51.072;17.174;2023-02-04T04:35:24;100817.16;;;1.06;100.00
9077;BME280;4574;51.072;17.174;2023-02-04T04:37:53;100833.03;;;1.01;100.00
9077;BME280;4574;51.072;17.174;2023-02-04T04:40:21;100836.47;;;1.02;100.00
9077;BME280;4574;51.072;17.174;2023-02-04T04:42:50;100858.25;;;1.01;100.00
9077;BME280;4574;51.072;17.174;2023-02-04T04:45:19;100867.06;;;0.98;100.00
9077;BME280;4574;51.072;17.174;2023-02-04T04:47:48;100874.78;;;1.00;100.00
9077;BME280;4574;51.072;17.174;2023-02-04T04:50:18;100885.44;;;0.95;100.00
9077;BME280;4574;51.072;17.174;2023-02-04T04:52:47;100890.56;;;0.97;100.00
9077;BME280;4574;51.072;17.174;2023-02-04T04:55:16;100897.56;;;0.96;100.00
9077;BME280;4574;51.072;17.174;2023-02-04T04:57:45;100891.91;;;0.87;100.00
9077;BME280;4574;51.072;17.174;2023-02-04T05:00:15;100918.28;;;0.99;100.00
9077;BME280;4574;51.072;17.174;2023-02-04T05:02:44;100922.75;;;0.96;100.00
9077;BME280;4574;51.072;17.174;2023-02-04T05:05:13;100936.16;;;1.07;100.00
9077;BME280;4574;51.072;17.174;2023-02-04T05:07:44;100948.50;;;1.03;100.00
9077;BME280;4574;51.072;17.174;2023-02-04T05:10:13;100947.13;;;0.95;100.00
9077;BME280;4574;51.072;17.174;2023-02-04T05:12:42;100957.69;;;0.92;100.00
9077;BME280;4574;51.072;17.174;2023-02-04T05:15:11;100967.72;;;1.01;100.00
9077;BME280;4574;51.072;17.174;2023-02-04T05:17:40;100980.09;;;0.96;100.00
9077;BME280;4574;51.072;17.174;2023-02-04T05:20:09;100982.34;;;0.85;100.00
9077;BME280;4574;51.072;17.174;2023-02-04T05:22:38;101016.72;;;0.93;100.00
9077;BME280;4574;51.072;17.174;2023-02-04T05:25:08;101021.94;;;0.93;100.00
9077;BME280;4574;51.072;17.174;2023-02-04T05:27:36;101035.09;;;0.90;100.00
9077;BME280;4574;51.072;17.174;2023-02-04T05:30:06;101041.16;;;0.90;100.00
9077;BME280;4574;51.072;17.174;2023-02-04T05:32:34;101047.34;;;0.88;100.00
9077;BME280;4574;51.072;17.174;2023-02-04T05:35:03;101058.56;;;0.90;100.00
9077;BME280;4574;51.072;17.174;2023-02-04T05:37:32;101068.28;;;0.86;100.00
9077;BME280;4574;51.072;17.174;2023-02-04T05:40:01;101072.50;;;0.89;100.00
9077;BME280;4574;51.072;17.174;2023-02-04T05:42:31;101081.09;;;0.91;100.00
9077;BME280;4574;51.072;17.174;2023-02-04T05:45:00;101085.53;;;0.89;100.00
9077;BME280;4574;51.072;17.174;2023-02-04T05:47:29;101082.66;;;0.95;100.00
9077;BME280;4574;51.072;17.174;2023-02-04T05:49:57;101095.69;;;0.95;100.00
9077;BME280;4574;51.072;17.174;2023-02-04T05:52:26;101114.59;;;1.00;100.00
9077;BME280;4574;51.072;17.174;2023-02-04T05:54:55;101118.88;;;1.01;100.00
9077;BME280;4574;51.072;17.174;2023-02-04T05:57:24;101119.78;;;1.00;100.00
9077;BME280;4574;51.072;17.174;2023-02-04T05:59:54;101122.66;;;0.94;100.00
9077;BME280;4574;51.072;17.174;2023-02-04T06:02:23;101137.25;;;0.98;100.00
9077;BME280;4574;51.072;17.174;2023-02-04T06:04:51;101141.91;;;0.91;100.00
9077;BME280;4574;51.072;17.174;2023-02-04T06:07:20;101148.19;;;0.86;100.00
9077;BME280;4574;51.072;17.174;2023-02-04T06:09:48;101152.25;;;0.93;100.00
9077;BME280;4574;51.072;17.174;2023-02-04T06:12:18;101172.38;;;0.89;100.00
9077;BME280;4574;51.072;17.174;2023-02-04T06:14:46;101170.63;;;0.90;100.00
9077;BME280;4574;51.072;17.174;2023-02-04T06:17:16;101195.63;;;0.94;100.00
9077;BME280;4574;51.072;17.174;2023-02-04T06:19:45;101194.72;;;0.95;100.00
9077;BME280;4574;51.072;17.174;2023-02-04T06:22:13;101207.75;;;0.95;100.00
9077;BME280;4574;51.072;17.174;2023-02-04T06:24:41;101203.28;;;0.98;100.00
9077;BME280;4574;51.072;17.174;2023-02-04T06:27:13;101217.94;;;1.01;100.00
9077;BME280;4574;51.072;17.174;2023-02-04T06:29:44;101228.25;;;0.82;100.00
9077;BME280;4574;51.072;17.174;2023-02-04T06:32:13;101235.16;;;0.83;100.00
9077;BME280;4574;51.072;17.174;2023-02-04T06:34:43;101244.19;;;0.75;100.00
9077;BME280;4574;51.072;17.174;2023-02-04T06:37:12;101255.56;;;0.72;100.00
9077;BME280;4574;51.072;17.174;2023-02-04T06:39:43;101259.09;;;0.71;100.00
9077;BME280;4574;51.072;17.174;2023-02-04T06:42:12;101267.78;;;0.72;100.00
9077;BME280;4574;51.072;17.174;2023-02-04T06:44:40;101281.59;;;0.74;100.00
9077;BME280;4574;51.072;17.174;2023-02-04T06:47:09;101291.25;;;0.70;100.00
9077;BME280;4574;51.072;17.174;2023-02-04T06:49:37;101299.75;;;0.75;100.00
9077;BME280;4574;51.072;17.174;2023-02-04T06:52:08;101315.38;;;0.75;100.00
9077;BME280;4574;51.072;17.174;2023-02-04T06:54:37;101329.41;;;0.73;100.00
9077;BME280;4574;51.072;17.174;2023-02-04T06:57:05;101336.53;;;0.68;100.00
9077;BME280;4574;51.072;17.174;2023-02-04T06:59:35;101338.50;;;0.61;100.00
9077;BME280;4574;51.072;17.174;2023-02-04T07:02:05;101355.00;;;0.62;100.00
9077;BME280;4574;51.072;17.174;2023-02-04T07:04:34;101359.34;;;0.61;100.00
9077;BME280;4574;51.072;17.174;2023-02-04T07:07:03;101363.84;;;0.58;100.00
9077;BME280;4574;51.072;17.174;2023-02-04T07:09:36;101351.72;;;0.57;100.00
9077;BME280;4574;51.072;17.174;2023-02-04T07:12:06;101385.47;;;0.60;100.00
9077;BME280;4574;51.072;17.174;2023-02-04T07:14:35;101382.28;;;0.52;100.00
9077;BME280;4574;51.072;17.174;2023-02-04T07:17:03;101404.59;;;0.59;100.00
9077;BME280;4574;51.072;17.174;2023-02-04T07:19:32;101409.13;;;0.54;100.00
9077;BME280;4574;51.072;17.174;2023-02-04T07:22:02;101419.38;;;0.58;100.00
9077;BME280;4574;51.072;17.174;2023-02-04T07:24:31;101427.16;;;0.60;100.00
9077;BME280;4574;51.072;17.174;2023-02-04T07:27:01;101422.88;;;0.57;100.00
9077;BME280;4574;51.072;17.174;2023-02-04T07:29:31;101427.94;;;0.62;100.00
9077;BME280;4574;51.072;17.174;2023-02-04T07:32:00;101437.59;;;0.58;100.00
9077;BME280;4574;51.072;17.174;2023-02-04T07:34:29;101443.69;;;0.59;100.00
9077;BME280;4574;51.072;17.174;2023-02-04T07:36:58;101444.72;;;0.53;100.00
9077;BME280;4574;51.072;17.174;2023-02-04T07:39:27;101450.91;;;0.51;100.00
9077;BME280;4574;51.072;17.174;2023-02-04T07:41:55;101455.03;;;0.56;100.00
9077;BME280;4574;51.072;17.174;2023-02-04T07:44:25;101462.72;;;0.61;100.00
9077;BME280;4574;51.072;17.174;2023-02-04T07:46:54;101466.13;;;0.63;100.00
9077;BME280;4574;51.072;17.174;2023-02-04T07:49:24;101471.94;;;0.69;100.00
9077;BME280;4574;51.072;17.174;2023-02-04T07:51:52;101472.59;;;0.76;100.00
9077;BME280;4574;51.072;17.174;2023-02-04T07:54:21;101474.97;;;0.82;100.00
9077;BME280;4574;51.072;17.174;2023-02-04T07:56:49;101479.75;;;0.94;100.00
9077;BME280;4574;51.072;17.174;2023-02-04T07:59:18;101480.50;;;0.97;100.00
9077;BME280;4574;51.072;17.174;2023-02-04T08:01:48;101482.00;;;1.03;100.00
9077;BME280;4574;51.072;17.174;2023-02-04T08:04:17;101485.19;;;1.11;100.00
9077;BME280;4574;51.072;17.174;2023-02-04T08:06:46;101486.84;;;1.13;100.00
9077;BME280;4574;51.072;17.174;2023-02-04T08:09:15;101495.28;;;1.20;100.00
9077;BME280;4574;51.072;17.174;2023-02-04T08:11:43;101492.38;;;1.27;100.00
9077;BME280;4574;51.072;17.174;2023-02-04T08:14:12;101497.53;;;1.28;100.00
9077;BME280;4574;51.072;17.174;2023-02-04T08:16:41;101513.84;;;1.33;100.00
9077;BME280;4574;51.072;17.174;2023-02-04T08:19:12;101512.03;;;1.35;100.00
9077;BME280;4574;51.072;17.174;2023-02-04T08:21:47;101516.06;;;1.44;100.00
9077;BME280;4574;51.072;17.174;2023-02-04T08:24:16;101517.69;;;1.46;100.00
9077;BME280;4574;51.072;17.174;2023-02-04T08:26:45;101523.81;;;1.45;100.00
9077;BME280;4574;51.072;17.174;2023-02-04T08:29:17;101520.06;;;1.52;100.00
9077;BME280;4574;51.072;17.174;2023-02-04T08:31:46;101512.13;;;1.55;100.00
9077;BME280;4574;51.072;17.174;2023-02-04T08:34:17;101520.81;;;1.56;100.00
9077;BME280;4574;51.072;17.174;2023-02-04T08:36:46;101504.31;;;1.55;100.00
9077;BME280;4574;51.072;17.174;2023-02-04T08:39:14;101508.56;;;1.58;100.00
9077;BME280;4574;51.072;17.174;2023-02-04T08:41:43;101511.00;;;1.62;100.00
9077;BME280;4574;51.072;17.174;2023-02-04T08:44:12;101521.19;;;1.68;100.00
9077;BME280;4574;51.072;17.174;2023-02-04T08:46:41;101528.09;;;1.69;100.00
9077;BME280;4574;51.072;17.174;2023-02-04T08:49:10;101522.59;;;1.77;100.00
9077;BME280;4574;51.072;17.174;2023-02-04T08:51:40;101529.72;;;1.73;100.00
9077;BME280;4574;51.072;17.174;2023-02-04T08:54:09;101533.00;;;1.78;100.00
9077;BME280;4574;51.072;17.174;2023-02-04T08:56:39;101539.81;;;1.82;100.00
9077;BME280;4574;51.072;17.174;2023-02-04T08:59:07;101550.00;;;1.88;100.00
9077;BME280;4574;51.072;17.174;2023-02-04T09:01:36;101548.31;;;1.87;100.00
9077;BME280;4574;51.072;17.174;2023-02-04T09:04:05;101549.81;;;1.93;100.00
9077;BME280;4574;51.072;17.174;2023-02-04T09:06:34;101568.88;;;2.16;100.00
9077;BME280;4574;51.072;17.174;2023-02-04T09:09:04;101557.66;;;2.14;100.00
9077;BME280;4574;51.072;17.174;2023-02-04T09:11:32;101567.97;;;2.17;100.00
9077;BME280;4574;51.072;17.174;2023-02-04T09:14:01;101569.91;;;2.12;100.00
9077;BME280;4574;51.072;17.174;2023-02-04T09:16:30;101558.06;;;2.04;100.00
9077;BME280;4574;51.072;17.174;2023-02-04T09:18:59;101573.69;;;2.05;100.00
9077;BME280;4574;51.072;17.174;2023-02-04T09:21:28;101574.47;;;2.07;100.00
9077;BME280;4574;51.072;17.174;2023-02-04T09:23:57;101571.75;;;2.10;100.00
9077;BME280;4574;51.072;17.174;2023-02-04T09:26:29;101582.00;;;2.15;100.00
9077;BME280;4574;51.072;17.174;2023-02-04T09:28:58;101585.47;;;2.15;100.00
9077;BME280;4574;51.072;17.174;2023-02-04T09:31:26;101590.81;;;2.12;100.00
9077;BME280;4574;51.072;17.174;2023-02-04T09:33:55;101601.19;;;2.14;100.00
9077;BME280;4574;51.072;17.174;2023-02-04T09:36:23;101596.94;;;2.11;100.00
9077;BME280;4574;51.072;17.174;2023-02-04T09:38:56;101604.78;;;2.11;100.00
9077;BME280;4574;51.072;17.174;2023-02-04T09:41:25;101609.09;;;2.12;100.00
9077;BME280;4574;51.072;17.174;2023-02-04T09:43:55;101610.97;;;2.09;100.00
9077;BME280;4574;51.072;17.174;2023-02-04T09:46:26;101614.91;;;1.97;100.00
9077;BME280;4574;51.072;17.174;2023-02-04T09:48:57;101617.66;;;1.94;100.00
9077;BME280;4574;51.072;17.174;2023-02-04T09:51:28;101607.56;;;1.85;100.00
9077;BME280;4574;51.072;17.174;2023-02-04T09:54:03;101619.59;;;1.89;100.00
9077;BME280;4574;51.072;17.174;2023-02-04T09:56:35;101617.22;;;1.83;100.00
9077;BME280;4574;51.072;17.174;2023-02-04T09:59:10;101615.16;;;1.91;100.00
9077;BME280;4574;51.072;17.174;2023-02-04T10:01:39;101606.97;;;2.00;100.00
9077;BME280;4574;51.072;17.174;2023-02-04T10:04:10;101609.13;;;2.11;100.00
9077;BME280;4574;51.072;17.174;2023-02-04T10:06:41;101621.25;;;2.13;100.00
9077;BME280;4574;51.072;17.174;2023-02-04T10:09:10;101626.03;;;2.02;100.00
9077;BME280;4574;51.072;17.174;2023-02-04T10:11:41;101624.81;;;1.89;100.00
9077;BME280;4574;51.072;17.174;2023-02-04T10:14:14;101644.09;;;1.85;100.00
9077;BME280;4574;51.072;17.174;2023-02-04T10:16:47;101633.44;;;1.91;100.00
9077;BME280;4574;51.072;17.174;2023-02-04T10:19:20;101634.38;;;1.89;100.00
9077;BME280;4574;51.072;17.174;2023-02-04T10:21:51;101641.94;;;1.96;100.00
9077;BME280;4574;51.072;17.174;2023-02-04T10:24:21;101645.63;;;1.91;100.00
9077;BME280;4574;51.072;17.174;2023-02-04T10:26:52;101642.97;;;1.92;100.00
9077;BME280;4574;51.072;17.174;2023-02-04T10:29:23;101662.72;;;1.99;100.00
9077;BME280;4574;51.072;17.174;2023-02-04T10:31:52;101659.13;;;2.02;100.00
9077;BME280;4574;51.072;17.174;2023-02-04T10:34:22;101660.78;;;2.04;100.00
9077;BME280;4574;51.072;17.174;2023-02-04T10:36:53;101659.19;;;2.00;100.00
9077;BME280;4574;51.072;17.174;2023-02-04T10:39:24;101669.00;;;1.94;100.00
9077;BME280;4574;51.072;17.174;2023-02-04T10:41:54;101664.66;;;1.94;100.00
9077;BME280;4574;51.072;17.174;2023-02-04T10:44:27;101664.53;;;1.97;100.00
9077;BME280;4574;51.072;17.174;2023-02-04T10:47:00;101663.66;;;1.97;100.00
9077;BME280;4574;51.072;17.174;2023-02-04T10:49:29;101676.44;;;2.04;100.00
9077;BME280;4574;51.072;17.174;2023-02-04T10:52:00;101677.78;;;2.14;100.00
9077;BME280;4574;51.072;17.174;2023-02-04T10:54:35;101674.16;;;2.18;100.00
9077;BME280;4574;51.072;17.174;2023-02-04T10:57:10;101676.75;;;2.18;100.00
9077;BME280;4574;51.072;17.174;2023-02-04T10:59:44;101685.56;;;2.16;100.00
9077;BME280;4574;51.072;17.174;2023-02-04T11:02:32;101673.41;;;2.15;100.00
9077;BME280;4574;51.072;17.174;2023-02-04T11:05:03;101688.75;;;2.45;100.00
9077;BME280;4574;51.072;17.174;2023-02-04T11:07:33;101694.91;;;2.44;100.00
9077;BME280;4574;51.072;17.174;2023-02-04T11:10:02;101679.75;;;2.31;100.00
9077;BME280;4574;51.072;17.174;2023-02-04T11:12:39;101699.34;;;2.42;100.00
9077;BME280;4574;51.072;17.174;2023-02-04T11:15:41;101704.03;;;2.33;100.00
9077;BME280;4574;51.072;17.174;2023-02-04T11:18:23;101708.44;;;2.32;100.00
9077;BME280;4574;51.072;17.174;2023-02-04T11:20:55;101712.50;;;2.39;100.00
9077;BME280;4574;51.072;17.174;2023-02-04T11:23:32;101702.00;;;2.41;100.00
9077;BME280;4574;51.072;17.174;2023-02-04T11:26:04;101699.34;;;2.42;100.00
9077;BME280;4574;51.072;17.174;2023-02-04T11:28:43;101706.13;;;2.46;100.00
9077;BME280;4574;51.072;17.174;2023-02-04T11:31:27;101719.88;;;2.51;100.00
9077;BME280;4574;51.072;17.174;2023-02-04T11:34:09;101720.25;;;2.42;100.00
9077;BME280;4574;51.072;17.174;2023-02-04T11:39:40;101728.78;;;2.24;100.00
9077;BME280;4574;51.072;17.174;2023-02-04T11:42:16;101732.34;;;2.22;100.00
9077;BME280;4574;51.072;17.174;2023-02-04T11:44:50;101741.88;;;2.23;100.00
9077;BME280;4574;51.072;17.174;2023-02-04T11:47:22;101740.13;;;2.23;100.00
9077;BME280;4574;51.072;17.174;2023-02-04T11:49:54;101743.78;;;2.19;100.00
9077;BME280;4574;51.072;17.174;2023-02-04T11:52:23;101744.78;;;2.15;99.17
9077;BME280;4574;51.072;17.174;2023-02-04T11:54:53;101747.56;;;2.11;96.99
9077;BME280;4574;51.072;17.174;2023-02-04T11:57:22;101730.59;;;1.99;94.21
9077;BME280;4574;51.072;17.174;2023-02-04T11:59:51;101747.84;;;2.03;93.36
9077;BME280;4574;51.072;17.174;2023-02-04T12:02:23;101743.47;;;2.04;92.92
9077;BME280;4574;51.072;17.174;2023-02-04T12:04:55;101744.94;;;2.11;92.91
9077;BME280;4574;51.072;17.174;2023-02-04T12:07:26;101747.44;;;2.14;92.70
9077;BME280;4574;51.072;17.174;2023-02-04T12:09:56;101754.22;;;2.19;93.56
9077;BME280;4574;51.072;17.174;2023-02-04T12:12:27;101742.28;;;2.12;93.82
9077;BME280;4574;51.072;17.174;2023-02-04T12:15:00;101752.75;;;2.12;91.45
9077;BME280;4574;51.072;17.174;2023-02-04T12:17:30;101748.91;;;1.98;91.75
9077;BME280;4574;51.072;17.174;2023-02-04T12:19:59;101758.53;;;1.97;89.98
9077;BME280;4574;51.072;17.174;2023-02-04T12:22:27;101757.66;;;1.97;88.48
9077;BME280;4574;51.072;17.174;2023-02-04T12:24:56;101743.59;;;2.01;87.66
9077;BME280;4574;51.072;17.174;2023-02-04T12:27:25;101757.97;;;2.12;87.40
9077;BME280;4574;51.072;17.174;2023-02-04T12:29:54;101761.88;;;2.24;88.32
9077;BME280;4574;51.072;17.174;2023-02-04T12:32:23;101772.09;;;2.30;89.34
9077;BME280;4574;51.072;17.174;2023-02-04T12:34:53;101770.50;;;2.26;90.82
9077;BME280;4574;51.072;17.174;2023-02-04T12:37:21;101751.03;;;2.11;91.24
9077;BME280;4574;51.072;17.174;2023-02-04T12:39:50;101766.31;;;2.22;93.22
9077;BME280;4574;51.072;17.174;2023-02-04T12:42:18;101757.66;;;2.20;91.38
9077;BME280;4574;51.072;17.174;2023-02-04T12:44:47;101751.66;;;2.18;91.15
9077;BME280;4574;51.072;17.174;2023-02-04T12:47:15;101764.47;;;2.24;90.35
9077;BME280;4574;51.072;17.174;2023-02-04T12:49:46;101759.31;;;2.22;90.14
9077;BME280;4574;51.072;17.174;2023-02-04T12:52:17;101774.25;;;2.42;91.09
9077;BME280;4574;51.072;17.174;2023-02-04T12:54:46;101770.16;;;2.35;88.32
9077;BME280;4574;51.072;17.174;2023-02-04T12:57:14;101779.06;;;2.52;89.31
9077;BME280;4574;51.072;17.174;2023-02-04T12:59:46;101772.53;;;2.85;88.74
9077;BME280;4574;51.072;17.174;2023-02-04T13:02:15;101768.88;;;3.10;88.62
9077;BME280;4574;51.072;17.174;2023-02-04T13:04:43;101777.63;;;3.31;87.25
9077;BME280;4574;51.072;17.174;2023-02-04T13:07:12;101778.63;;;3.07;87.44
9077;BME280;4574;51.072;17.174;2023-02-04T13:09:43;101777.47;;;2.71;89.14
9077;BME280;4574;51.072;17.174;2023-02-04T13:12:12;101794.25;;;2.65;89.54
9077;BME280;4574;51.072;17.174;2023-02-04T13:14:43;101795.88;;;2.68;90.36
9077;BME280;4574;51.072;17.174;2023-02-04T13:17:12;101797.69;;;3.52;100.00
9077;BME280;4574;51.072;17.174;2023-02-04T13:19:41;101800.59;;;3.44;90.45